Shinwamaru — SHINWA — position and weather

sailwx.info

Track history (hours):
 
Tides and Currents Weather Stations Pressure Air Temp Water Temp Dewpoint Dewpoint Depression Visibility Wind Speed Wind Dir Waves Ship Positions

Shinwamaru

Last reported at 2017-Nov-18 21:51 UTC. Time now 2017-Nov-19 05:10 UTC.
Position N 35°30' E 139°45'.

Length 12 m.

Type: Tug. MMSI: 431009702.

Date/timePositionNaut miles runAvg speedWind from/ knotsBaromVisibWave heightAir tempDewpointWater temp
2017-Nov-18 21:51N 35°30' E 139°45'3 7.7
2017-Nov-18 21:29N 35°29' E 139°42'3 5.5
2017-Nov-18 21:00N 35°27' E 139°40'  
2017-Nov-16 04:02N 35°27' E 139°40'0 0.0
2017-Nov-16 03:59N 35°27' E 139°40'2 4.6
2017-Nov-16 03:27N 35°29' E 139°41'2 5.0
2017-Nov-16 03:00N 35°30' E 139°44'2 1.1
2017-Nov-16 01:08N 35°28' E 139°45'1 5.6
2017-Nov-16 01:00N 35°28' E 139°45'3 5.6
2017-Nov-16 00:30N 35°26' E 139°42'3 5.3
2017-Nov-16 00:00N 35°24' E 139°39'1 1.2
2017-Nov-15 23:14N 35°24' E 139°38'0 0.4
2017-Nov-15 23:00N 35°24' E 139°38'3 5.7
2017-Nov-15 22:28N 35°26' E 139°41'2 0.1
2017-Nov-15 04:02N 35°27' E 139°40'0 0.1
2017-Nov-15 03:58N 35°27' E 139°40'3 6.6
2017-Nov-15 03:31N 35°29' E 139°42'2 0.2
2017-Nov-14 19:37N 35°30' E 139°44'1 7.9
2017-Nov-14 19:28N 35°29' E 139°43'3 0.2
2017-Nov-14 03:38N 35°27' E 139°40'0 3.8
2017-Nov-14 03:30N 35°27' E 139°40'2 3.7
2017-Nov-14 02:59N 35°29' E 139°41'3 0.1
2017-Nov-12 19:30N 35°30' E 139°45'4 7.7
2017-Nov-12 19:00N 35°28' E 139°41'2 0.2
2017-Nov-12 07:07N 35°27' E 139°40'1 5.5
2017-Nov-12 07:00N 35°27' E 139°40'5 8.3
2017-Nov-12 06:22N 35°30' E 139°45'1 0.5
2017-Nov-12 05:22N 35°31' E 139°46'1 2.5
2017-Nov-12 05:00N 35°30' E 139°45'1 0.9
2017-Nov-12 04:20N 35°30' E 139°44'0 0.0
2017-Nov-12 03:53N 35°30' E 139°44'0 0.0
2017-Nov-12 03:29N 35°30' E 139°44'0 0.0
2017-Nov-12 02:55N 35°30' E 139°44'0 0.0
2017-Nov-12 02:28N 35°30' E 139°44'0 0.0
2017-Nov-12 01:55N 35°30' E 139°44'0 0.0
2017-Nov-12 00:00N 35°30' E 139°44'0 0.1
2017-Nov-11 23:28N 35°30' E 139°44'1 2.8
2017-Nov-11 22:58N 35°31' E 139°46'1 0.3
2017-Nov-11 21:03N 35°30' E 139°45'1 7.9
2017-Nov-11 20:59N 35°30' E 139°44'4 8.2
2017-Nov-11 20:30N 35°28' E 139°40'1 2.6
2017-Nov-11 19:58N 35°27' E 139°40'0 0.0
2017-Nov-10 04:53N 35°27' E 139°40'2 2.4
2017-Nov-10 03:53N 35°29' E 139°41'5 0.5
2017-Nov-09 18:18N 35°27' E 139°47'3 7.6
2017-Nov-09 17:55N 35°27' E 139°43'3 6.8
2017-Nov-09 17:30N 35°27' E 139°40'  
Track history (hours):
 
Tides and Currents Weather Stations Pressure Air Temp Water Temp Dewpoint Dewpoint Depression Visibility Wind Speed Wind Dir Waves Ship Positions

Shinwamaru

Last reported at 2017-Nov-18 21:51 UTC. Time now 2017-Nov-19 05:10 UTC.
Position N 35°30' E 139°45'.

Length 12 m.

Type: Tug. MMSI: 431009702.

Date/timePositionNaut miles runAvg speedWind from/ knotsBaromVisibWave heightAir tempDewpointWater temp
2017-Nov-18 21:51N 35°30' E 139°45'3 7.7
2017-Nov-18 21:29N 35°29' E 139°42'3 5.5
2017-Nov-18 21:00N 35°27' E 139°40'  
2017-Nov-16 04:02N 35°27' E 139°40'0 0.0
2017-Nov-16 03:59N 35°27' E 139°40'2 4.6
2017-Nov-16 03:27N 35°29' E 139°41'2 5.0
2017-Nov-16 03:00N 35°30' E 139°44'2 1.1
2017-Nov-16 01:08N 35°28' E 139°45'1 5.6
2017-Nov-16 01:00N 35°28' E 139°45'3 5.6
2017-Nov-16 00:30N 35°26' E 139°42'3 5.3
2017-Nov-16 00:00N 35°24' E 139°39'1 1.2
2017-Nov-15 23:14N 35°24' E 139°38'0 0.4
2017-Nov-15 23:00N 35°24' E 139°38'3 5.7
2017-Nov-15 22:28N 35°26' E 139°41'2 0.1
2017-Nov-15 04:02N 35°27' E 139°40'0 0.1
2017-Nov-15 03:58N 35°27' E 139°40'3 6.6
2017-Nov-15 03:31N 35°29' E 139°42'2 0.2
2017-Nov-14 19:37N 35°30' E 139°44'1 7.9
2017-Nov-14 19:28N 35°29' E 139°43'3 0.2
2017-Nov-14 03:38N 35°27' E 139°40'0 3.8
2017-Nov-14 03:30N 35°27' E 139°40'2 3.7
2017-Nov-14 02:59N 35°29' E 139°41'3 0.1
2017-Nov-12 19:30N 35°30' E 139°45'4 7.7
2017-Nov-12 19:00N 35°28' E 139°41'2 0.2
2017-Nov-12 07:07N 35°27' E 139°40'1 5.5
2017-Nov-12 07:00N 35°27' E 139°40'5 8.3
2017-Nov-12 06:22N 35°30' E 139°45'1 0.5
2017-Nov-12 05:22N 35°31' E 139°46'1 2.5
2017-Nov-12 05:00N 35°30' E 139°45'1 0.9
2017-Nov-12 04:20N 35°30' E 139°44'0 0.0
2017-Nov-12 03:53N 35°30' E 139°44'0 0.0
2017-Nov-12 03:29N 35°30' E 139°44'0 0.0
2017-Nov-12 02:55N 35°30' E 139°44'0 0.0
2017-Nov-12 02:28N 35°30' E 139°44'0 0.0
2017-Nov-12 01:55N 35°30' E 139°44'0 0.0
2017-Nov-12 00:00N 35°30' E 139°44'0 0.1
2017-Nov-11 23:28N 35°30' E 139°44'1 2.8
2017-Nov-11 22:58N 35°31' E 139°46'1 0.3
2017-Nov-11 21:03N 35°30' E 139°45'1 7.9
2017-Nov-11 20:59N 35°30' E 139°44'4 8.2
2017-Nov-11 20:30N 35°28' E 139°40'1 2.6
2017-Nov-11 19:58N 35°27' E 139°40'0 0.0
2017-Nov-10 04:53N 35°27' E 139°40'2 2.4
2017-Nov-10 03:53N 35°29' E 139°41'5 0.5
2017-Nov-09 18:18N 35°27' E 139°47'3 7.6
2017-Nov-09 17:55N 35°27' E 139°43'3 6.8
2017-Nov-09 17:30N 35°27' E 139°40'  

Dump ship's entire track history